Time;durP1;ratioP1;P1;durP2;ratioP2;P2;SDS_P1;SDS_P2;PMS_P1;PMS_P2;Temp;Humidity;BMP_temperature;BMP_pressure;BME280_temperature;BME280_humidity;BME280_pressure;Samples;Min_cycle;Max_cycle;Signal;HPM_P1;HPM_P2
2021/09/07 00:01:42;;;;;;;0.60;0.43;;;16.90;99.90;;;;;;5053589;28;20327;-69
2021/09/07 00:04:08;;;;;;;0.77;0.77;;;17.00;99.90;;;;;;5054755;28;20625;-69
2021/09/07 00:06:33;;;;;;;0.40;0.20;;;16.80;99.90;;;;;;5054490;28;20169;-69
2021/09/07 00:08:59;;;;;;;0.40;0.30;;;16.50;99.90;;;;;;5054396;28;20693;-69
2021/09/07 00:11:25;;;;;;;0.40;0.20;;;16.40;99.90;;;;;;5054394;28;20185;-70
2021/09/07 00:13:51;;;;;;;0.40;0.20;;;16.50;99.90;;;;;;5053531;28;20279;-70
2021/09/07 00:16:17;;;;;;;0.40;0.20;;;16.60;99.90;;;;;;5054384;28;20478;-68
2021/09/07 00:18:42;;;;;;;0.57;0.57;;;16.60;99.90;;;;;;5054174;28;20219;-72
2021/09/07 00:21:08;;;;;;;0.40;0.20;;;16.60;99.90;;;;;;5054867;28;20428;-71
2021/09/07 00:23:34;;;;;;;0.40;0.20;;;16.40;99.90;;;;;;5054351;28;20177;-69
2021/09/07 00:25:59;;;;;;;0.93;0.93;;;16.40;99.90;;;;;;5054186;28;20610;-68
2021/09/07 00:28:25;;;;;;;0.80;0.67;;;16.30;99.90;;;;;;5054116;28;20222;-68
2021/09/07 00:30:50;;;;;;;0.40;0.20;;;16.30;99.90;;;;;;5054181;28;20188;-70
2021/09/07 00:33:16;;;;;;;3.70;3.30;;;16.20;99.90;;;;;;5054139;28;20185;-70
2021/09/07 00:35:41;;;;;;;0.80;0.80;;;16.20;99.90;;;;;;5054058;28;20188;-68
2021/09/07 00:38:09;;;;;;;0.77;0.77;;;16.20;99.90;;;;;;5053859;28;20211;-71
2021/09/07 00:40:35;;;;;;;2.10;1.33;;;16.20;99.90;;;;;;5053021;28;20181;-68
2021/09/07 00:43:01;;;;;;;1.50;1.47;;;16.00;99.90;;;;;;5054105;28;20434;-68
2021/09/07 00:45:26;;;;;;;0.40;0.30;;;16.10;99.90;;;;;;5053851;28;20191;-68
2021/09/07 00:47:52;;;;;;;1.57;1.47;;;16.00;99.90;;;;;;5054013;28;20187;-70
2021/09/07 00:50:17;;;;;;;1.70;1.60;;;16.10;99.90;;;;;;5054121;28;20181;-70
2021/09/07 00:52:44;;;;;;;0.40;0.20;;;16.20;99.90;;;;;;5055979;28;20193;-68
2021/09/07 00:55:11;;;;;;;0.40;0.20;;;16.10;99.90;;;;;;5054372;28;20191;-70
2021/09/07 00:57:37;;;;;;;1.00;0.90;;;16.20;99.90;;;;;;5053679;28;20953;-70
2021/09/07 01:00:06;;;;;;;0.40;0.30;;;16.30;99.90;;;;;;5053984;28;20204;-70
2021/09/07 01:02:32;;;;;;;0.40;0.20;;;16.40;99.90;;;;;;5054243;28;20530;-70
2021/09/07 01:04:58;;;;;;;1.27;0.70;;;16.30;99.90;;;;;;5053856;28;20510;-69
2021/09/07 01:07:24;;;;;;;0.50;0.37;;;16.40;99.90;;;;;;5053882;28;20462;-69
2021/09/07 01:09:49;;;;;;;0.40;0.20;;;16.40;99.90;;;;;;5053891;28;20183;-70
2021/09/07 01:12:15;;;;;;;0.50;0.37;;;16.70;99.90;;;;;;5052966;28;20187;-68
2021/09/07 01:14:41;;;;;;;0.40;0.20;;;16.60;99.90;;;;;;5053946;28;20185;-69
2021/09/07 01:17:12;;;;;;;0.40;0.20;;;16.40;99.90;;;;;;5053120;28;20272;-68
2021/09/07 01:19:37;;;;;;;0.40;0.20;;;16.50;99.90;;;;;;5053507;28;20459;-69
2021/09/07 01:22:03;;;;;;;0.40;0.20;;;16.40;99.90;;;;;;5053521;28;20430;-70
2021/09/07 01:24:29;;;;;;;0.40;0.20;;;16.40;99.90;;;;;;5052705;28;20237;-71
2021/09/07 01:26:55;;;;;;;0.40;0.17;;;16.30;99.90;;;;;;5053574;28;20252;-70
2021/09/07 01:29:22;;;;;;;0.50;0.40;;;16.20;99.90;;;;;;5053315;28;20614;-69
2021/09/07 01:31:47;;;;;;;0.40;0.10;;;16.00;99.90;;;;;;5052500;28;20431;-70
2021/09/07 01:34:23;;;;;;;0.60;0.60;;;15.90;99.90;;;;;;5053376;28;20423;-71
2021/09/07 01:36:49;;;;;;;0.40;0.20;;;16.20;99.90;;;;;;5053230;28;20188;-69
2021/09/07 01:39:15;;;;;;;0.40;0.20;;;16.40;99.90;;;;;;5053351;28;20770;-70
2021/09/07 01:41:42;;;;;;;0.40;0.20;;;16.50;99.90;;;;;;5053487;28;20215;-69
2021/09/07 01:44:08;;;;;;;0.40;0.20;;;16.40;99.90;;;;;;5053400;28;20498;-70
2021/09/07 01:46:34;;;;;;;1.90;1.30;;;16.30;99.90;;;;;;5053290;28;20538;-70
2021/09/07 01:48:59;;;;;;;0.40;0.20;;;16.30;99.90;;;;;;5053262;28;20474;-70
2021/09/07 01:51:25;;;;;;;0.40;0.20;;;16.00;99.90;;;;;;5053417;28;20180;-70
2021/09/07 01:53:50;;;;;;;0.40;0.20;;;15.90;99.90;;;;;;5053326;28;20181;-69
2021/09/07 01:56:16;;;;;;;3.23;2.93;;;16.00;99.90;;;;;;5053250;28;20181;-68
2021/09/07 01:58:42;;;;;;;0.40;0.20;;;16.00;99.90;;;;;;5052783;28;20608;-68
2021/09/07 02:01:07;;;;;;;4.00;3.70;;;15.80;99.90;;;;;;5053159;28;20183;-68
2021/09/07 02:03:33;;;;;;;1.77;1.67;;;15.70;99.90;;;;;;5053218;28;20173;-70
2021/09/07 02:05:58;;;;;;;0.40;0.40;;;15.60;99.90;;;;;;5052024;28;20189;-68
2021/09/07 02:08:24;;;;;;;0.40;0.30;;;15.60;99.90;;;;;;5053174;28;20269;-68
2021/09/07 02:10:49;;;;;;;0.40;0.20;;;15.50;99.90;;;;;;5056736;28;20270;-68
2021/09/07 02:13:15;;;;;;;0.70;0.50;;;15.40;99.90;;;;;;5056746;28;20609;-68
2021/09/07 02:15:40;;;;;;;0.63;0.63;;;15.30;99.90;;;;;;5056522;28;20268;-68
2021/09/07 02:18:06;;;;;;;0.40;0.20;;;15.10;99.90;;;;;;5056224;28;20567;-68
2021/09/07 02:20:31;;;;;;;0.40;0.20;;;15.30;99.90;;;;;;5056350;28;20299;-68
2021/09/07 02:22:57;;;;;;;1.37;1.27;;;15.40;99.90;;;;;;5056526;28;20184;-68
2021/09/07 02:25:23;;;;;;;0.40;0.30;;;15.30;99.90;;;;;;5056514;28;20266;-68
2021/09/07 02:27:49;;;;;;;0.40;0.20;;;15.20;99.90;;;;;;5056243;28;20185;-68
2021/09/07 02:30:14;;;;;;;0.40;0.20;;;15.30;99.90;;;;;;5056158;28;20227;-68
2021/09/07 02:32:40;;;;;;;0.60;0.60;;;15.20;99.90;;;;;;5056217;28;20431;-68
2021/09/07 02:35:06;;;;;;;1.07;0.90;;;15.10;99.90;;;;;;5056702;28;20184;-71
2021/09/07 02:37:32;;;;;;;1.40;1.33;;;15.20;99.90;;;;;;5056201;28;20192;-70
2021/09/07 02:39:58;;;;;;;0.40;0.20;;;15.20;99.90;;;;;;5055982;28;20467;-70
2021/09/07 02:42:23;;;;;;;0.40;0.20;;;15.20;99.90;;;;;;5056004;28;20515;-70
2021/09/07 02:44:49;;;;;;;0.97;0.97;;;15.20;99.90;;;;;;5056162;28;20169;-70
2021/09/07 02:47:14;;;;;;;0.73;0.70;;;15.10;99.90;;;;;;5055924;28;20185;-68
2021/09/07 02:49:40;;;;;;;0.40;0.20;;;15.20;99.90;;;;;;5055681;28;20191;-68
2021/09/07 02:52:06;;;;;;;0.30;0.20;;;15.30;99.90;;;;;;5054945;28;20185;-68
2021/09/07 02:54:31;;;;;;;0.40;0.20;;;15.30;99.90;;;;;;5055731;28;20180;-68
2021/09/07 02:56:57;;;;;;;0.40;0.40;;;15.20;99.90;;;;;;5055779;28;20177;-68
2021/09/07 02:59:22;;;;;;;0.40;0.20;;;15.30;99.90;;;;;;5055428;28;20239;-68
2021/09/07 03:01:49;;;;;;;1.42;0.82;;;15.20;99.90;;;;;;5055648;28;20645;-68
2021/09/07 03:04:15;;;;;;;0.50;0.50;;;15.30;99.90;;;;;;5055617;28;20204;-68
2021/09/07 03:06:40;;;;;;;0.40;0.20;;;15.30;99.90;;;;;;5055823;28;20254;-68
2021/09/07 03:09:06;;;;;;;0.83;0.83;;;15.40;99.90;;;;;;5055539;28;20176;-71
2021/09/07 03:11:32;;;;;;;2.77;2.13;;;15.50;99.90;;;;;;5055527;28;20192;-71
2021/09/07 03:13:58;;;;;;;1.70;0.77;;;15.40;99.90;;;;;;5054508;28;20177;-71
2021/09/07 03:16:23;;;;;;;0.40;0.30;;;15.30;99.90;;;;;;5055291;28;20257;-72
2021/09/07 03:18:50;;;;;;;0.50;0.40;;;15.30;99.90;;;;;;5055244;28;20204;-71
2021/09/07 03:21:15;;;;;;;0.63;0.63;;;15.30;99.90;;;;;;5055276;28;20169;-71
2021/09/07 03:23:41;;;;;;;0.40;0.30;;;15.30;99.90;;;;;;5055669;28;20173;-68
2021/09/07 03:26:08;;;;;;;0.40;0.30;;;15.30;99.90;;;;;;5055339;28;20173;-68
2021/09/07 03:28:34;;;;;;;0.32;0.20;;;15.30;99.90;;;;;;5055166;28;20185;-68
2021/09/07 03:31:00;;;;;;;0.33;0.20;;;15.20;99.90;;;;;;5054101;28;20207;-68
2021/09/07 03:33:25;;;;;;;0.30;0.20;;;15.40;99.90;;;;;;5055106;28;20176;-68
2021/09/07 03:35:51;;;;;;;0.40;0.30;;;15.20;99.90;;;;;;5054997;28;20184;-68
2021/09/07 03:38:16;;;;;;;0.40;0.40;;;15.00;99.90;;;;;;5054805;28;20279;-69
2021/09/07 03:40:42;;;;;;;0.83;0.83;;;15.30;99.90;;;;;;5055006;28;20185;-68
2021/09/07 03:43:07;;;;;;;0.40;0.30;;;15.20;99.90;;;;;;5055060;28;20179;-68
2021/09/07 03:45:33;;;;;;;0.30;0.20;;;15.10;99.90;;;;;;5054742;28;20618;-68
2021/09/07 03:47:58;;;;;;;0.40;0.20;;;15.20;99.90;;;;;;5054637;28;20177;-69
2021/09/07 03:50:24;;;;;;;0.40;0.20;;;15.30;99.90;;;;;;5054680;28;20180;-69
2021/09/07 03:52:50;;;;;;;0.53;0.53;;;15.30;99.90;;;;;;5053687;28;20196;-69
2021/09/07 03:55:15;;;;;;;0.30;0.20;;;15.10;99.90;;;;;;5054685;28;20207;-68
2021/09/07 03:57:41;;;;;;;0.93;0.93;;;15.30;99.90;;;;;;5054399;28;20824;-68
2021/09/07 04:00:07;;;;;;;0.30;0.20;;;15.30;99.90;;;;;;5054354;28;20287;-68
2021/09/07 04:02:33;;;;;;;0.40;0.40;;;15.30;99.90;;;;;;5053368;28;20602;-68
2021/09/07 04:04:59;;;;;;;0.30;0.20;;;15.20;99.90;;;;;;5053488;28;20185;-68
2021/09/07 04:07:24;;;;;;;1.37;1.23;;;15.10;99.90;;;;;;5053396;28;20181;-68
2021/09/07 04:09:50;;;;;;;0.50;0.50;;;15.20;99.90;;;;;;5053382;28;20281;-68
2021/09/07 04:12:15;;;;;;;0.30;0.20;;;15.20;99.90;;;;;;5054377;28;20187;-68
2021/09/07 04:14:41;;;;;;;1.43;0.73;;;15.10;99.90;;;;;;5054366;28;20193;-68
2021/09/07 04:17:08;;;;;;;0.40;0.10;;;15.10;99.90;;;;;;5053997;28;20254;-68
2021/09/07 04:19:34;;;;;;;0.40;0.20;;;15.30;99.90;;;;;;5054007;28;20208;-68
2021/09/07 04:21:59;;;;;;;0.40;0.20;;;15.20;99.90;;;;;;5054244;28;20261;-68
2021/09/07 04:24:25;;;;;;;0.83;0.83;;;15.20;99.90;;;;;;5054139;28;20169;-68
2021/09/07 04:26:53;;;;;;;1.50;1.50;;;15.20;99.90;;;;;;5053854;28;20255;-68
2021/09/07 04:29:19;;;;;;;0.40;0.20;;;15.30;99.90;;;;;;5053897;28;20637;-68
2021/09/07 04:31:45;;;;;;;1.55;0.82;;;15.10;99.90;;;;;;5053515;28;20185;-68
2021/09/07 04:34:10;;;;;;;0.40;0.30;;;14.90;99.90;;;;;;5054078;28;20184;-68
2021/09/07 04:36:36;;;;;;;0.30;0.20;;;14.70;99.90;;;;;;5053965;28;20223;-68
2021/09/07 04:39:02;;;;;;;0.40;0.20;;;14.70;99.90;;;;;;5053648;28;20559;-68
2021/09/07 04:41:28;;;;;;;0.30;0.10;;;14.90;99.90;;;;;;5052983;28;20180;-68
2021/09/07 04:43:53;;;;;;;0.40;0.20;;;14.80;99.90;;;;;;5053019;28;20181;-68
2021/09/07 04:46:19;;;;;;;1.90;1.80;;;14.90;99.90;;;;;;5052949;28;20187;-69
2021/09/07 04:48:48;;;;;;;0.30;0.10;;;15.20;99.90;;;;;;5053472;28;20184;-69
2021/09/07 04:51:13;;;;;;;0.30;0.20;;;15.20;99.90;;;;;;5053746;28;20181;-68
2021/09/07 04:53:39;;;;;;;0.30;0.20;;;15.00;99.90;;;;;;5053794;28;20256;-69
2021/09/07 04:56:05;;;;;;;0.30;0.20;;;15.10;99.90;;;;;;5054055;28;20177;-70
2021/09/07 04:58:31;;;;;;;0.40;0.20;;;15.20;99.90;;;;;;5053677;28;20249;-71
2021/09/07 05:00:56;;;;;;;0.40;0.20;;;15.50;99.90;;;;;;5052259;28;20443;-70
2021/09/07 05:03:25;;;;;;;0.30;0.20;;;15.50;99.90;;;;;;5054092;28;20534;-72
2021/09/07 05:05:51;;;;;;;0.40;0.20;;;15.70;99.90;;;;;;5053925;28;20506;-71
2021/09/07 05:08:17;;;;;;;0.30;0.20;;;15.70;99.90;;;;;;5052701;28;20204;-67
2021/09/07 05:10:42;;;;;;;0.40;0.20;;;15.80;99.90;;;;;;5053757;28;20212;-71
2021/09/07 05:13:08;;;;;;;2.10;2.00;;;15.70;99.90;;;;;;5053952;28;20181;-70
2021/09/07 05:15:36;;;;;;;1.23;1.23;;;15.70;99.90;;;;;;5053492;28;20173;-70
2021/09/07 05:18:02;;;;;;;0.60;0.60;;;15.60;99.90;;;;;;5052480;28;20557;-71
2021/09/07 05:20:27;;;;;;;0.80;0.80;;;15.50;99.90;;;;;;5053630;28;20541;-71
2021/09/07 05:22:53;;;;;;;0.30;0.13;;;15.50;99.90;;;;;;5053474;28;20179;-71
2021/09/07 05:25:18;;;;;;;0.47;0.40;;;15.50;99.90;;;;;;5053341;28;20219;-71
2021/09/07 05:27:44;;;;;;;0.40;0.20;;;15.60;99.90;;;;;;5053313;28;20212;-71
2021/09/07 05:30:11;;;;;;;0.30;0.20;;;15.60;99.90;;;;;;5053075;28;20234;-71
2021/09/07 05:32:38;;;;;;;0.40;0.27;;;15.90;99.90;;;;;;5053901;28;20189;-70
2021/09/07 05:35:05;;;;;;;0.40;0.20;;;16.20;99.90;;;;;;5052382;28;20434;-71
2021/09/07 05:37:30;;;;;;;0.40;0.20;;;16.30;99.90;;;;;;5052903;28;20438;-71
2021/09/07 05:39:56;;;;;;;0.70;0.70;;;16.50;99.90;;;;;;5053114;28;20204;-71
2021/09/07 05:42:21;;;;;;;0.97;0.97;;;16.90;99.90;;;;;;5052952;28;20640;-71
2021/09/07 05:44:47;;;;;;;0.40;0.20;;;17.10;99.90;;;;;;5055505;28;20174;-71
2021/09/07 05:47:12;;;;;;;0.40;0.20;;;17.60;99.90;;;;;;5056474;28;20263;-71
2021/09/07 05:49:38;;;;;;;0.40;0.20;;;18.10;99.90;;;;;;5057260;28;20181;-70
2021/09/07 05:52:04;;;;;;;0.40;0.20;;;18.40;99.90;;;;;;5056921;28;20223;-68
2021/09/07 05:54:29;;;;;;;0.40;0.10;;;18.70;1.00;;;;;;5056832;28;20240;-68
2021/09/07 05:56:57;;;;;;;0.40;0.20;;;18.70;1.00;;;;;;5056808;28;20920;-67
2021/09/07 05:59:24;;;;;;;3.57;1.23;;;18.60;1.00;;;;;;5055554;28;20219;-68
2021/09/07 06:01:50;;;;;;;0.40;0.20;;;18.80;1.00;;;;;;5056605;28;20884;-68
2021/09/07 06:04:15;;;;;;;0.70;0.70;;;19.00;1.00;;;;;;5056871;28;20440;-69
2021/09/07 06:06:41;;;;;;;0.67;0.50;;;19.20;1.00;;;;;;5056796;28;20181;-70
2021/09/07 06:09:06;;;;;;;0.40;0.20;;;19.70;1.00;;;;;;5055898;28;20185;-70
2021/09/07 06:11:32;;;;;;;0.40;0.20;;;19.40;1.00;;;;;;5056768;28;20185;-68
2021/09/07 06:13:57;;;;;;;0.80;0.80;;;19.90;1.00;;;;;;5055326;28;20181;-67
2021/09/07 06:16:41;;;;;;;2.53;2.03;;;20.50;1.00;;;;;;5056805;28;20181;-67
2021/09/07 06:19:07;;;;;;;0.40;0.20;;;20.40;1.00;;;;;;5056338;28;20201;-67
2021/09/07 06:21:33;;;;;;;2.50;2.30;;;21.30;1.00;;;;;;5056594;28;20430;-67
2021/09/07 06:23:59;;;;;;;0.73;0.73;;;22.00;1.00;;;;;;5056890;28;20432;-67
2021/09/07 06:26:25;;;;;;;0.40;0.17;;;23.30;1.00;;;;;;5055634;28;20177;-70
2021/09/07 06:28:50;;;;;;;0.40;0.20;;;23.40;99.90;;;;;;5056213;28;20743;-70
2021/09/07 06:31:16;;;;;;;0.40;0.40;;;23.10;1.00;;;;;;5056473;28;20633;-67
2021/09/07 06:33:49;;;;;;;0.47;0.30;;;22.40;99.90;;;;;;5056178;28;20212;-68
2021/09/07 06:36:22;;;;;;;0.40;0.20;;;21.30;1.00;;;;;;5056088;28;20188;-68
2021/09/07 06:38:48;;;;;;;1.50;1.40;;;20.60;66.80;;;;;;5054834;28;20474;-71
2021/09/07 06:41:14;;;;;;;0.53;0.53;;;20.00;99.90;;;;;;5056076;28;20415;-71
2021/09/07 06:43:41;;;;;;;0.60;0.60;;;20.00;99.90;;;;;;5055904;28;20177;-68
2021/09/07 06:46:07;;;;;;;0.40;0.20;;;20.40;1.00;;;;;;5055948;28;20423;-70
2021/09/07 06:48:32;;;;;;;0.40;0.20;;;20.50;1.00;;;;;;5054854;28;20434;-71
2021/09/07 06:50:58;;;;;;;0.40;0.20;;;20.50;99.90;;;;;;5054978;28;20699;-68
2021/09/07 06:53:24;;;;;;;0.40;0.20;;;20.00;1.00;;;;;;5055151;28;20314;-68
2021/09/07 06:55:49;;;;;;;0.40;0.20;;;19.20;99.90;;;;;;5054529;28;20185;-70
2021/09/07 06:58:15;;;;;;;0.40;0.20;;;18.60;1.00;;;;;;5055260;28;20447;-67
2021/09/07 07:00:41;;;;;;;0.40;0.20;;;18.40;1.00;;;;;;5055182;28;20223;-68
2021/09/07 07:03:06;;;;;;;0.83;0.83;;;18.60;1.00;;;;;;5054695;28;20181;-70
2021/09/07 07:05:32;;;;;;;0.40;0.20;;;18.90;1.00;;;;;;5054870;28;20189;-71
2021/09/07 07:07:58;;;;;;;0.40;0.20;;;19.40;1.00;;;;;;5055616;28;20238;-72
2021/09/07 07:10:23;;;;;;;0.40;0.30;;;19.90;99.90;;;;;;5055432;28;20639;-71
2021/09/07 07:12:49;;;;;;;0.60;0.57;;;19.80;65.40;;;;;;5055471;28;20808;-71
2021/09/07 07:15:15;;;;;;;0.40;0.20;;;19.80;26.20;;;;;;5055621;28;20514;-72
2021/09/07 07:17:40;;;;;;;0.40;0.20;;;19.50;99.90;;;;;;5055357;28;20534;-71
2021/09/07 07:20:06;;;;;;;0.40;0.20;;;18.60;1.00;;;;;;5054840;28;20213;-71
2021/09/07 07:22:32;;;;;;;0.40;0.20;;;18.00;1.00;;;;;;5054134;28;20189;-70
2021/09/07 07:24:57;;;;;;;0.40;0.20;;;17.90;1.00;;;;;;5055147;28;20438;-71
2021/09/07 07:27:23;;;;;;;0.73;0.73;;;17.80;21.40;;;;;;5055168;28;20511;-71
2021/09/07 07:29:49;;;;;;;0.40;0.20;;;18.10;22.40;;;;;;5055303;28;20191;-71
2021/09/07 07:32:18;;;;;;;0.40;0.20;;;18.30;1.00;;;;;;5055411;28;20473;-71
2021/09/07 07:34:43;;;;;;;0.40;0.20;;;18.60;1.00;;;;;;5055053;28;20636;-71
2021/09/07 07:37:09;;;;;;;3.33;0.83;;;18.50;1.00;;;;;;5054928;28;20427;-68
2021/09/07 07:39:35;;;;;;;4.93;4.13;;;17.80;1.30;;;;;;5055060;28;20545;-68
2021/09/07 07:42:01;;;;;;;2.40;2.20;;;17.30;99.90;;;;;;5055124;28;20169;-68
2021/09/07 07:44:27;;;;;;;0.50;0.40;;;16.80;99.90;;;;;;5054734;28;20493;-68
2021/09/07 07:46:52;;;;;;;0.50;0.30;;;16.90;99.90;;;;;;5054972;28;20420;-68
2021/09/07 07:49:18;;;;;;;0.50;0.50;;;17.20;99.90;;;;;;5054717;28;20450;-68
2021/09/07 07:51:45;;;;;;;0.40;0.20;;;17.70;69.00;;;;;;5054872;28;20640;-68
2021/09/07 07:54:12;;;;;;;0.80;0.80;;;17.70;1.00;;;;;;5054749;28;20176;-68
2021/09/07 07:56:37;;;;;;;0.40;0.20;;;18.00;1.00;;;;;;5054365;28;20431;-68
2021/09/07 07:59:03;;;;;;;1.03;0.93;;;17.90;1.00;;;;;;5054408;28;20536;-68
2021/09/07 08:01:29;;;;;;;2.33;2.13;;;18.00;1.00;;;;;;5054363;28;20181;-68
2021/09/07 08:03:56;;;;;;;1.43;1.13;;;18.10;1.00;;;;;;5054392;28;20438;-71
2021/09/07 08:06:21;;;;;;;0.40;0.20;;;18.60;1.00;;;;;;5053517;28;20920;-68
2021/09/07 08:08:49;;;;;;;0.77;0.77;;;18.90;1.00;;;;;;5054613;28;20505;-71
2021/09/07 08:11:14;;;;;;;0.50;0.30;;;19.10;1.00;;;;;;5054404;28;20181;-71
2021/09/07 08:13:40;;;;;;;0.40;0.10;;;19.50;99.90;;;;;;5054476;28;20435;-71
2021/09/07 08:16:05;;;;;;;0.50;0.20;;;19.80;1.00;;;;;;5054175;28;20593;-69
2021/09/07 08:18:31;;;;;;;0.90;0.40;;;19.80;98.40;;;;;;5053947;28;20181;-71
2021/09/07 08:20:56;;;;;;;0.60;0.53;;;19.80;99.90;;;;;;5054104;28;20204;-71
2021/09/07 08:23:22;;;;;;;3.23;1.33;;;19.80;1.00;;;;;;5053873;28;20177;-71
2021/09/07 08:25:47;;;;;;;0.40;0.20;;;19.40;25.30;;;;;;5053846;28;20187;-71
2021/09/07 08:28:13;;;;;;;0.40;0.10;;;19.50;99.90;;;;;;5053855;28;20176;-71
2021/09/07 08:30:39;;;;;;;0.50;0.30;;;20.10;99.90;;;;;;5054052;28;20243;-71
2021/09/07 08:33:11;;;;;;;0.60;0.30;;;20.10;99.90;;;;;;5053919;28;20237;-71
2021/09/07 08:35:37;;;;;;;0.90;0.90;;;20.00;63.40;;;;;;5053985;28;20209;-71
2021/09/07 08:38:02;;;;;;;0.40;0.20;;;19.80;99.90;;;;;;5053730;28;20822;-71
2021/09/07 08:40:28;;;;;;;0.40;0.13;;;19.70;1.00;;;;;;5052520;28;20216;-71
2021/09/07 08:42:54;;;;;;;1.53;1.43;;;20.00;99.90;;;;;;5053669;28;20215;-71
2021/09/07 08:45:24;;;;;;;0.40;0.10;;;20.10;99.90;;;;;;5053704;28;20246;-70
2021/09/07 08:47:50;;;;;;;1.67;0.97;;;19.80;99.90;;;;;;5053546;28;20427;-71
2021/09/07 08:50:15;;;;;;;0.40;0.20;;;20.10;1.00;;;;;;5053517;28;20423;-71
2021/09/07 08:52:42;;;;;;;0.40;0.20;;;20.20;1.00;;;;;;5053365;28;20436;-71
2021/09/07 08:55:08;;;;;;;0.50;0.50;;;20.10;99.90;;;;;;5053438;28;20614;-71
2021/09/07 08:57:33;;;;;;;0.40;0.20;;;19.90;99.90;;;;;;5053529;28;20431;-71
2021/09/07 09:00:01;;;;;;;1.50;0.87;;;19.60;1.00;;;;;;5053475;28;20482;-71
2021/09/07 09:02:27;;;;;;;0.40;0.20;;;19.90;45.40;;;;;;5053303;28;20177;-71
2021/09/07 09:04:54;;;;;;;0.83;0.80;;;20.30;99.90;;;;;;5053744;28;20428;-70
2021/09/07 09:07:28;;;;;;;0.40;0.20;;;20.30;99.90;;;;;;5053790;28;20833;-70
2021/09/07 09:09:56;;;;;;;0.40;0.20;;;20.70;99.90;;;;;;5053175;28;20434;-71
2021/09/07 09:12:31;;;;;;;0.50;0.43;;;20.70;99.90;;;;;;5053401;28;20978;-70
2021/09/07 09:14:58;;;;;;;0.40;0.20;;;20.50;99.90;;;;;;5053945;28;20441;-71
2021/09/07 09:17:29;;;;;;;0.40;0.20;;;20.40;99.90;;;;;;5053615;28;20777;-71
2021/09/07 09:20:07;;;;;;;0.63;0.63;;;20.80;99.90;;;;;;5057004;28;20554;-71
2021/09/07 09:22:49;;;;;;;1.17;1.07;;;20.40;1.00;;;;;;5057367;28;20441;-71
2021/09/07 09:25:23;;;;;;;0.40;0.20;;;20.30;1.00;;;;;;5057301;28;20890;-70
2021/09/07 09:28:05;;;;;;;0.40;0.20;;;20.40;99.90;;;;;;5057292;28;20438;-70
2021/09/07 09:30:35;;;;;;;0.40;0.20;;;20.50;99.90;;;;;;5057354;28;20441;-72
2021/09/07 09:33:00;;;;;;;0.40;0.20;;;21.00;1.00;;;;;;5057297;28;20454;-72
2021/09/07 09:35:27;;;;;;;0.40;0.17;;;21.50;1.00;;;;;;5057339;28;20926;-72
2021/09/07 09:38:06;;;;;;;0.40;0.20;;;21.50;1.00;;;;;;5057099;28;20534;-72
2021/09/07 09:40:33;;;;;;;0.50;0.30;;;21.00;10.60;;;;;;5055871;28;20944;-70
2021/09/07 09:43:17;;;;;;;0.40;0.20;;;21.00;99.90;;;;;;5057326;28;20430;-70
2021/09/07 09:45:43;;;;;;;0.40;0.20;;;20.90;99.90;;;;;;5057203;28;20430;-70
2021/09/07 09:48:19;;;;;;;0.40;0.20;;;21.20;99.90;;;;;;5055826;28;20479;-70
2021/09/07 09:50:45;;;;;;;0.83;0.83;;;21.50;99.90;;;;;;5056930;28;20249;-69
2021/09/07 09:53:11;;;;;;;0.80;0.60;;;22.00;45.30;;;;;;5056842;28;20431;-69
2021/09/07 09:55:37;;;;;;;0.40;0.17;;;22.10;1.00;;;;;;5056677;28;20503;-69
2021/09/07 09:58:02;;;;;;;0.40;0.20;;;22.40;1.00;;;;;;5055730;28;20807;-69
2021/09/07 10:00:28;;;;;;;1.27;0.90;;;22.40;1.00;;;;;;5055818;28;20240;-69
2021/09/07 10:02:59;;;;;;;1.37;1.27;;;22.30;1.00;;;;;;5056469;28;20188;-70
2021/09/07 10:05:26;;;;;;;0.40;0.20;;;21.80;1.00;;;;;;5056740;28;20246;-72
2021/09/07 10:07:52;;;;;;;0.47;0.20;;;22.00;1.00;;;;;;5056601;28;20423;-73
2021/09/07 10:10:20;;;;;;;0.40;0.30;;;22.10;1.00;;;;;;5056513;28;20808;-72
2021/09/07 10:12:57;;;;;;;0.40;0.10;;;22.60;1.00;;;;;;5056584;28;20173;-72
2021/09/07 10:15:37;;;;;;;0.50;0.20;;;22.90;1.00;;;;;;5056574;28;20510;-72
2021/09/07 10:26:17;;;;;;;0.50;0.20;;;23.40;1.00;;;;;;5056464;28;20423;-72
2021/09/07 10:28:45;;;;;;;0.47;0.20;;;23.20;1.00;;;;;;5056080;28;20420;-70
2021/09/07 10:31:12;;;;;;;0.50;0.20;;;23.00;1.00;;;;;;5054543;28;20916;-70
2021/09/07 10:33:38;;;;;;;0.50;0.20;;;23.00;1.00;;;;;;5056343;28;20419;-70
2021/09/07 10:36:25;;;;;;;0.50;0.20;;;23.30;1.00;;;;;;5056319;28;20427;-70
2021/09/07 10:38:51;;;;;;;0.50;0.20;;;23.50;1.00;;;;;;5055829;28;20470;-69
2021/09/07 10:41:29;;;;;;;0.40;0.20;;;22.40;4.20;;;;;;5056562;28;20484;-70
2021/09/07 10:43:58;;;;;;;0.50;0.20;;;22.80;1.00;;;;;;5055977;28;20415;-70
2021/09/07 10:47:03;;;;;;;0.60;0.50;;;22.80;1.00;;;;;;5055702;28;20430;-72
2021/09/07 10:49:36;;;;;;;1.33;0.60;;;22.80;1.00;;;;;;5055869;28;20425;-72
2021/09/07 10:52:26;;;;;;;0.50;0.10;;;23.20;1.00;;;;;;5056037;28;20927;-73
2021/09/07 10:55:09;;;;;;;0.40;0.17;;;23.60;1.00;;;;;;5056004;28;20496;-72
2021/09/07 10:57:35;;;;;;;0.50;0.30;;;23.30;1.00;;;;;;5055630;28;20437;-72
2021/09/07 11:00:18;;;;;;;2.37;2.00;;;22.60;1.00;;;;;;5054462;28;20470;-72
2021/09/07 11:02:57;;;;;;;0.50;0.20;;;22.50;18.00;;;;;;5055579;28;20505;-70
2021/09/07 11:05:23;;;;;;;0.50;0.20;;;23.00;1.00;;;;;;5055400;28;20419;-70
2021/09/07 11:07:50;;;;;;;0.40;0.13;;;23.50;1.00;;;;;;5055305;28;20434;-69
2021/09/07 11:10:26;;;;;;;0.50;0.20;;;22.20;98.00;;;;;;5055726;28;20251;-71
2021/09/07 11:13:04;;;;;;;2.33;2.13;;;21.80;66.60;;;;;;5055497;28;20880;-71
2021/09/07 11:15:33;;;;;;;0.97;0.87;;;21.80;99.90;;;;;;5055119;28;20431;-72
2021/09/07 11:18:02;;;;;;;0.60;0.53;;;22.00;99.90;;;;;;5055097;28;20427;-72
2021/09/07 11:20:46;;;;;;;2.00;0.97;;;22.40;46.70;;;;;;5055122;28;20495;-71
2021/09/07 11:23:20;;;;;;;0.50;0.20;;;22.20;21.40;;;;;;5054977;28;20430;-71
2021/09/07 11:25:47;;;;;;;0.50;0.10;;;22.60;4.90;;;;;;5055096;28;20426;-72
2021/09/07 11:28:15;;;;;;;0.50;0.20;;;23.60;1.00;;;;;;5055008;28;20746;-72
2021/09/07 11:30:51;;;;;;;0.50;0.20;;;24.00;1.00;;;;;;5054983;28;20428;-72
2021/09/07 11:33:37;;;;;;;0.50;0.20;;;23.50;1.00;;;;;;5055022;28;20427;-72
2021/09/07 11:36:11;;;;;;;0.60;0.40;;;23.80;1.00;;;;;;5054001;28;20719;-72
2021/09/07 11:38:41;;;;;;;0.50;0.40;;;23.50;1.00;;;;;;5054585;28;20419;-72
2021/09/07 11:41:26;;;;;;;1.73;0.50;;;22.90;1.00;;;;;;5053964;28;20415;-71
2021/09/07 11:43:55;;;;;;;0.70;0.53;;;22.00;68.60;;;;;;5054681;28;20424;-71
2021/09/07 11:46:29;;;;;;;0.50;0.20;;;22.00;99.90;;;;;;5054793;28;20910;-72
2021/09/07 11:49:03;;;;;;;5.33;1.43;;;22.60;7.60;;;;;;5054934;28;20426;-72
2021/09/07 11:51:32;;;;;;;0.40;0.20;;;22.70;1.00;;;;;;5054798;28;20427;-72
2021/09/07 11:54:04;;;;;;;0.50;0.30;;;23.20;1.00;;;;;;5054574;28;20902;-72
2021/09/07 11:56:32;;;;;;;0.90;0.40;;;22.80;1.00;;;;;;5054454;28;20835;-72
2021/09/07 11:59:14;;;;;;;1.40;1.30;;;22.30;60.70;;;;;;5053891;28;20785;-71
2021/09/07 12:01:47;;;;;;;0.50;0.30;;;22.70;22.20;;;;;;5054244;28;20434;-69
2021/09/07 12:04:15;;;;;;;1.47;1.37;;;22.80;1.00;;;;;;5053083;28;20428;-69
2021/09/07 12:06:44;;;;;;;0.40;0.10;;;23.30;1.00;;;;;;5054009;28;20439;-69
2021/09/07 12:09:13;;;;;;;1.70;1.60;;;23.70;1.00;;;;;;5053252;28;20454;-69
2021/09/07 12:11:40;;;;;;;0.93;0.60;;;22.90;99.90;;;;;;5054112;28;21013;-69
2021/09/07 12:14:11;;;;;;;0.50;0.20;;;21.90;99.90;;;;;;5054235;28;20423;-69
2021/09/07 12:16:58;;;;;;;2.17;0.60;;;22.20;99.90;;;;;;5054112;28;20442;-69
2021/09/07 12:19:28;;;;;;;2.97;1.03;;;22.00;99.90;;;;;;5053467;28;20519;-71
2021/09/07 12:22:22;;;;;;;0.77;0.50;;;22.00;99.90;;;;;;5054067;28;20767;-69
2021/09/07 12:25:18;;;;;;;0.50;0.27;;;22.60;99.90;;;;;;5052836;28;20430;-69
2021/09/07 12:27:49;;;;;;;0.40;0.10;;;22.80;99.90;;;;;;5052252;28;20427;-69
2021/09/07 12:30:17;;;;;;;0.43;0.20;;;23.10;98.70;;;;;;5053930;28;20427;-70
2021/09/07 12:33:02;;;;;;;0.93;0.93;;;23.70;1.00;;;;;;5054172;28;20481;-72
2021/09/07 12:35:42;;;;;;;0.50;0.30;;;23.20;99.90;;;;;;5053841;28;20442;-72
2021/09/07 12:38:11;;;;;;;0.50;0.33;;;23.20;99.90;;;;;;5053431;28;20430;-72
2021/09/07 12:40:45;;;;;;;0.40;0.20;;;22.80;99.90;;;;;;5053661;28;20492;-72
2021/09/07 12:43:20;;;;;;;2.30;2.10;;;22.50;99.90;;;;;;5054218;28;20431;-72
2021/09/07 12:45:48;;;;;;;3.50;1.20;;;22.50;99.90;;;;;;5053848;28;20572;-71
2021/09/07 12:48:14;;;;;;;4.27;1.80;;;22.80;99.90;;;;;;5053516;28;20577;-71
2021/09/07 12:50:40;;;;;;;0.70;0.57;;;22.60;99.90;;;;;;5053850;28;20924;-71
2021/09/07 12:53:07;;;;;;;0.83;0.67;;;22.20;99.90;;;;;;5053515;28;20185;-71
2021/09/07 12:55:39;;;;;;;0.97;0.57;;;22.00;1.00;;;;;;5053635;28;20504;-71
2021/09/07 12:58:08;;;;;;;0.90;0.60;;;22.40;99.90;;;;;;5053477;28;20458;-69
2021/09/07 13:00:38;;;;;;;0.40;0.10;;;22.70;99.90;;;;;;5053081;28;20566;-71
2021/09/07 13:03:04;;;;;;;0.40;0.20;;;22.80;99.90;;;;;;5053588;28;20416;-72